createdAt,value
2019-05-13T00:00:26.140Z,8.40
2019-05-13T00:02:54.425Z,8.40
2019-05-13T00:05:23.239Z,8.10
2019-05-13T00:07:49.647Z,8.00
2019-05-13T00:10:16.483Z,7.70
2019-05-13T00:12:44.522Z,7.60
2019-05-13T00:15:13.776Z,7.60
2019-05-13T00:17:40.174Z,7.50
2019-05-13T00:20:07.234Z,7.40
2019-05-13T00:22:34.048Z,7.40
2019-05-13T00:25:00.758Z,7.50
2019-05-13T00:27:27.433Z,7.50
2019-05-13T00:29:53.968Z,7.70
2019-05-13T00:32:20.538Z,7.50
2019-05-13T00:34:47.081Z,7.70
2019-05-13T00:37:14.669Z,7.90
2019-05-13T00:39:44.239Z,8.00
2019-05-13T00:42:14.266Z,7.90
2019-05-13T00:44:43.728Z,7.80
2019-05-13T00:47:10.130Z,7.60
2019-05-13T00:49:36.902Z,7.70
2019-05-13T00:52:04.005Z,7.80
2019-05-13T00:54:31.122Z,7.70
2019-05-13T00:56:57.762Z,7.70
2019-05-13T00:59:25.127Z,7.60
2019-05-13T01:01:53.291Z,7.60
2019-05-13T01:04:19.963Z,7.70
2019-05-13T01:06:46.595Z,7.90
2019-05-13T01:09:14.479Z,7.50
2019-05-13T01:11:43.699Z,7.30
2019-05-13T01:14:10.659Z,7.40
2019-05-13T01:16:37.298Z,7.40
2019-05-13T01:19:05.559Z,7.50
2019-05-13T01:21:34.427Z,7.50
2019-05-13T01:24:03.507Z,7.30
2019-05-13T01:26:29.859Z,7.40
2019-05-13T01:28:57.427Z,7.40
2019-05-13T01:31:24.126Z,7.30
2019-05-13T01:33:50.953Z,6.80
2019-05-13T01:36:18.004Z,7.10
2019-05-13T01:38:45.567Z,7.20
2019-05-13T01:41:13.662Z,7.10
2019-05-13T01:43:40.539Z,7.30
2019-05-13T01:46:08.132Z,7.10
2019-05-13T01:48:36.342Z,6.80
2019-05-13T01:51:03.843Z,6.70
2019-05-13T01:53:30.842Z,6.80
2019-05-13T01:55:57.417Z,6.80
2019-05-13T01:58:23.986Z,6.80
2019-05-13T02:00:51.752Z,6.80
2019-05-13T02:03:19.064Z,6.80
2019-05-13T02:05:45.741Z,6.80
2019-05-13T02:08:14.328Z,6.90
2019-05-13T02:10:56.700Z,6.90
2019-05-13T02:13:24.658Z,7.10
2019-05-13T02:15:54.804Z,7.20
2019-05-13T02:18:24.116Z,6.90
2019-05-13T02:20:49.644Z,6.90
2019-05-13T02:23:16.206Z,6.80
2019-05-13T02:25:44.603Z,6.60
2019-05-13T02:28:13.710Z,6.80
2019-05-13T02:30:40.523Z,6.90
2019-05-13T02:33:08.062Z,6.80
2019-05-13T02:35:34.753Z,6.70
2019-05-13T02:38:17.631Z,6.80
2019-05-13T02:40:32.684Z,6.50
2019-05-13T02:43:02.629Z,6.50
2019-05-13T02:45:28.511Z,6.40
2019-05-13T02:47:55.056Z,6.50
2019-05-13T02:50:22.620Z,6.50
2019-05-13T02:52:53.159Z,6.50
2019-05-13T02:55:22.252Z,6.40
2019-05-13T02:57:48.285Z,6.40
2019-05-13T03:00:15.337Z,6.30
2019-05-13T03:02:43.773Z,6.30
2019-05-13T03:05:13.815Z,6.30
2019-05-13T03:07:42.558Z,6.40
2019-05-13T03:10:13.227Z,6.30
2019-05-13T03:12:38.651Z,6.20
2019-05-13T03:15:05.591Z,6.60
2019-05-13T03:17:37.358Z,6.50
2019-05-13T03:20:05.446Z,6.20
2019-05-13T03:22:32.732Z,6.20
2019-05-13T03:25:03.091Z,6.20
2019-05-13T03:27:33.296Z,6.00
2019-05-13T03:29:57.311Z,5.90
2019-05-13T03:32:26.789Z,5.90
2019-05-13T03:34:56.078Z,5.90
2019-05-13T03:37:26.116Z,6.00
2019-05-13T03:39:52.419Z,6.10
2019-05-13T03:42:22.920Z,6.10
2019-05-13T03:44:53.076Z,6.00
2019-05-13T03:47:23.089Z,6.00
2019-05-13T03:49:53.803Z,6.10
2019-05-13T03:52:22.460Z,6.00
2019-05-13T03:54:51.915Z,6.00
2019-05-13T03:57:17.695Z,5.90
2019-05-13T03:59:44.534Z,5.70
2019-05-13T04:02:12.975Z,5.80
2019-05-13T04:04:42.331Z,6.00
2019-05-13T04:07:08.515Z,6.10
2019-05-13T04:09:36.679Z,6.20
2019-05-13T04:12:03.732Z,5.80
2019-05-13T04:14:33.463Z,5.70
2019-05-13T04:17:02.483Z,5.60
2019-05-13T04:19:33.683Z,5.70
2019-05-13T04:22:02.274Z,5.80
2019-05-13T04:24:33.308Z,5.70
2019-05-13T04:27:02.631Z,5.60
2019-05-13T04:29:32.892Z,5.70
2019-05-13T04:32:02.242Z,6.00
2019-05-13T04:34:33.752Z,5.80
2019-05-13T04:37:02.421Z,5.90
2019-05-13T04:39:44.463Z,5.60
2019-05-13T04:42:02.089Z,5.50
2019-05-13T04:44:28.596Z,5.90
2019-05-13T04:46:55.358Z,5.90
2019-05-13T04:49:23.217Z,5.60
2019-05-13T04:51:52.391Z,5.80
2019-05-13T04:54:22.294Z,5.40
2019-05-13T04:56:47.376Z,5.40
2019-05-13T04:59:14.266Z,5.40
2019-05-13T05:02:04.881Z,5.60
2019-05-13T05:04:47.454Z,5.50
2019-05-13T05:07:23.765Z,5.60
2019-05-13T05:10:23.414Z,5.90
2019-05-13T05:13:06.712Z,5.90
2019-05-13T05:16:02.903Z,5.70
2019-05-13T05:18:36.277Z,5.70
2019-05-13T05:21:12.794Z,5.50
2019-05-13T05:24:11.439Z,5.40
2019-05-13T05:27:12.781Z,5.50
2019-05-13T05:30:13.242Z,5.40
2019-05-13T05:32:52.906Z,5.60
2019-05-13T05:35:43.241Z,5.60
2019-05-13T05:38:43.386Z,5.80
2019-05-13T05:41:13.915Z,5.90
2019-05-13T05:43:45.310Z,6.00
2019-05-13T05:46:12.262Z,6.10
2019-05-13T05:48:41.983Z,6.30
2019-05-13T05:51:13.069Z,6.30
2019-05-13T05:53:42.724Z,6.70
2019-05-13T05:56:13.942Z,6.70
2019-05-13T05:58:42.028Z,6.70
2019-05-13T06:01:11.843Z,6.90
2019-05-13T06:03:41.958Z,6.80
2019-05-13T06:06:12.413Z,6.90
2019-05-13T06:08:41.793Z,7.10
2019-05-13T06:11:11.625Z,7.10
2019-05-13T06:13:38.681Z,7.40
2019-05-13T06:16:06.142Z,7.40
2019-05-13T06:18:32.786Z,7.50
2019-05-13T06:21:01.732Z,7.50
2019-05-13T06:23:31.129Z,7.70
2019-05-13T06:25:57.229Z,7.60
2019-05-13T06:28:24.665Z,7.60
2019-05-13T06:30:52.948Z,7.70
2019-05-13T06:33:21.200Z,7.70
2019-05-13T06:35:51.924Z,7.80
2019-05-13T06:38:18.077Z,7.90
2019-05-13T06:40:59.059Z,7.80
2019-05-13T06:43:13.310Z,7.80
2019-05-13T06:45:42.056Z,8.00
2019-05-13T06:48:11.457Z,8.20
2019-05-13T06:50:37.393Z,8.30
2019-05-13T06:53:08.281Z,8.20
2019-05-13T06:55:34.998Z,8.20
2019-05-13T06:58:02.291Z,8.30
2019-05-13T07:00:34.699Z,8.30
2019-05-13T07:03:02.082Z,8.30
2019-05-13T07:05:27.618Z,8.30
2019-05-13T07:07:54.181Z,8.50
2019-05-13T07:10:21.711Z,8.70
2019-05-13T07:12:48.815Z,8.80
2019-05-13T07:15:15.825Z,8.70
2019-05-13T07:17:42.363Z,8.80
2019-05-13T07:20:11.652Z,8.70
2019-05-13T07:22:37.903Z,8.90
2019-05-13T07:25:06.229Z,8.90
2019-05-13T07:27:33.300Z,9.10
2019-05-13T07:30:02.159Z,9.20
2019-05-13T07:32:31.433Z,9.30
2019-05-13T07:34:57.687Z,9.00
2019-05-13T07:37:24.252Z,9.10
2019-05-13T07:39:53.054Z,9.20
2019-05-13T07:42:22.024Z,9.50
2019-05-13T07:44:48.141Z,9.60
2019-05-13T07:47:15.925Z,9.50
2019-05-13T07:49:42.934Z,9.60
2019-05-13T07:52:11.704Z,9.70
2019-05-13T07:54:38.227Z,9.60
2019-05-13T07:57:04.915Z,9.70
2019-05-13T07:59:32.112Z,9.70
2019-05-13T08:01:59.305Z,9.70
2019-05-13T08:04:29.096Z,9.90
2019-05-13T08:06:57.369Z,9.70
2019-05-13T08:09:24.125Z,9.90
2019-05-13T08:12:04.277Z,9.90
2019-05-13T08:14:21.623Z,10.10
2019-05-13T08:16:47.928Z,10.20
2019-05-13T08:19:14.865Z,10.30
2019-05-13T08:21:41.899Z,10.30
2019-05-13T08:24:08.869Z,10.30
2019-05-13T08:26:38.009Z,10.40
2019-05-13T08:29:06.123Z,10.50
2019-05-13T08:31:33.602Z,10.40
2019-05-13T08:34:02.441Z,10.50
2019-05-13T08:36:32.542Z,10.60
2019-05-13T08:38:58.781Z,10.50
2019-05-13T08:41:25.421Z,10.50
2019-05-13T08:43:52.543Z,10.80
2019-05-13T08:46:21.878Z,11.00
2019-05-13T08:48:48.606Z,10.90
2019-05-13T08:51:15.540Z,10.80
2019-05-13T08:53:43.880Z,10.90
2019-05-13T08:56:12.212Z,11.10
2019-05-13T08:58:41.162Z,11.10
2019-05-13T09:01:07.677Z,11.10
2019-05-13T09:03:34.544Z,11.10
2019-05-13T09:06:02.756Z,11.10
2019-05-13T09:08:31.936Z,11.30
2019-05-13T09:11:01.366Z,11.40
2019-05-13T09:13:28.944Z,11.40
2019-05-13T09:15:56.664Z,11.40
2019-05-13T09:18:23.323Z,11.60
2019-05-13T09:20:52.030Z,11.30
2019-05-13T09:23:19.026Z,11.70
2019-05-13T09:25:46.468Z,11.60
2019-05-13T09:28:13.917Z,11.90
2019-05-13T09:30:42.435Z,11.70
2019-05-13T09:33:11.414Z,11.80
2019-05-13T09:35:38.049Z,11.80
2019-05-13T09:38:05.714Z,12.10
2019-05-13T09:40:32.349Z,12.00
2019-05-13T09:42:59.506Z,12.20
2019-05-13T09:45:26.173Z,12.40
2019-05-13T09:47:54.418Z,12.50
2019-05-13T09:50:31.548Z,12.30
2019-05-13T09:52:51.722Z,12.50
2019-05-13T09:57:47.346Z,12.80
2019-05-13T10:00:14.318Z,12.80
2019-05-13T10:02:42.787Z,12.70
2019-05-13T10:05:11.551Z,12.70
2019-05-13T10:07:38.516Z,12.90
2019-05-13T10:10:07.186Z,12.70
2019-05-13T10:12:33.740Z,12.50
2019-05-13T10:15:02.148Z,12.80
2019-05-13T10:17:28.769Z,12.90
2019-05-13T10:19:55.368Z,13.00
2019-05-13T10:22:22.191Z,13.10
2019-05-13T10:24:50.941Z,13.10
2019-05-13T10:27:18.978Z,13.30
2019-05-13T10:29:46.399Z,13.00
2019-05-13T10:32:13.553Z,13.00
2019-05-13T10:34:42.628Z,13.40
2019-05-13T10:37:11.310Z,13.20
2019-05-13T10:39:38.137Z,13.00
2019-05-13T10:42:04.767Z,12.90
2019-05-13T10:44:31.320Z,12.90
2019-05-13T10:46:59.361Z,13.10
2019-05-13T10:49:25.922Z,13.20
2019-05-13T10:51:52.906Z,13.10
2019-05-13T10:54:21.840Z,13.00
2019-05-13T10:56:48.595Z,13.00
2019-05-13T10:59:15.321Z,13.20
2019-05-13T11:01:43.616Z,13.50
2019-05-13T11:04:13.592Z,13.30
2019-05-13T11:06:41.619Z,13.30
2019-05-13T11:09:12.750Z,13.40
2019-05-13T11:11:38.433Z,13.10
2019-05-13T11:14:11.370Z,13.20
2019-05-13T11:16:35.660Z,13.40
2019-05-13T11:19:03.246Z,13.50
2019-05-13T11:21:32.074Z,13.60
2019-05-13T11:23:58.331Z,13.60
2019-05-13T11:26:24.989Z,13.50
2019-05-13T11:28:52.326Z,13.30
2019-05-13T11:31:21.727Z,13.30
2019-05-13T11:33:47.877Z,13.60
2019-05-13T11:36:18.940Z,13.50
2019-05-13T11:38:43.416Z,13.30
2019-05-13T11:41:11.844Z,13.60
2019-05-13T11:43:41.198Z,14.00
2019-05-13T11:46:07.227Z,13.80
2019-05-13T11:48:33.851Z,13.70
2019-05-13T11:51:03.405Z,13.50
2019-05-13T11:55:59.073Z,13.20
2019-05-13T11:58:25.907Z,13.40
2019-05-13T12:00:56.990Z,13.50
2019-05-13T12:03:23.760Z,13.60
2019-05-13T12:05:53.783Z,13.60
2019-05-13T12:08:22.408Z,14.00
2019-05-13T12:10:47.406Z,13.90
2019-05-13T12:13:14.084Z,13.80
2019-05-13T12:15:46.781Z,13.80
2019-05-13T12:18:12.619Z,13.80
2019-05-13T12:20:41.960Z,13.80
2019-05-13T12:23:08.564Z,14.10
2019-05-13T12:25:35.272Z,14.00
2019-05-13T12:28:03.297Z,13.80
2019-05-13T12:30:33.700Z,13.80
2019-05-13T12:33:02.559Z,13.80
2019-05-13T12:35:28.685Z,13.90
2019-05-13T12:37:55.681Z,13.80
2019-05-13T12:40:23.317Z,13.70
2019-05-13T12:42:53.203Z,14.10
2019-05-13T12:45:19.736Z,14.00
2019-05-13T12:47:47.465Z,14.20
2019-05-13T12:50:14.850Z,14.20
2019-05-13T12:52:43.694Z,14.40
2019-05-13T12:55:13.797Z,14.10
2019-05-13T12:57:38.663Z,14.20
2019-05-13T13:00:08.685Z,14.20
2019-05-13T13:02:35.618Z,14.40
2019-05-13T13:05:15.737Z,14.60
2019-05-13T13:07:37.496Z,14.70
2019-05-13T13:09:59.966Z,14.50
2019-05-13T13:12:34.794Z,14.30
2019-05-13T13:14:55.680Z,14.30
2019-05-13T13:17:24.128Z,14.70
2019-05-13T13:19:54.718Z,14.90
2019-05-13T13:22:19.090Z,14.80
2019-05-13T13:24:51.526Z,15.00
2019-05-13T13:27:22.566Z,15.00
2019-05-13T13:29:43.463Z,15.20
2019-05-13T13:32:13.405Z,15.30
2019-05-13T13:34:39.257Z,15.10
2019-05-13T13:37:07.523Z,15.20
2019-05-13T13:39:34.189Z,15.20
2019-05-13T13:42:05.408Z,15.30
2019-05-13T13:44:34.739Z,15.30
2019-05-13T13:46:57.706Z,15.40
2019-05-13T13:49:24.397Z,15.20
2019-05-13T13:51:50.911Z,15.50
2019-05-13T13:54:17.588Z,15.30
2019-05-13T13:56:44.355Z,15.50
2019-05-13T13:59:13.910Z,15.90
2019-05-13T14:01:40.324Z,16.10
2019-05-13T14:04:06.826Z,15.80
2019-05-13T14:06:25.462Z,12.60
2019-05-13T14:06:32.631Z,13.30
2019-05-13T14:07:22.216Z,16.10
2019-05-13T14:09:01.982Z,16.30
2019-05-13T14:11:28.561Z,15.90
2019-05-13T14:13:55.155Z,16.10
2019-05-13T14:16:29.232Z,16.40
2019-05-13T14:18:52.309Z,16.40
2019-05-13T14:21:18.784Z,16.10
2019-05-13T14:23:45.506Z,16.50
2019-05-13T14:26:12.253Z,17.10
2019-05-13T14:28:38.923Z,17.20
2019-05-13T14:31:05.561Z,17.10
2019-05-13T14:33:35.538Z,16.90
2019-05-13T14:36:01.621Z,16.50
2019-05-13T14:38:28.338Z,16.80
2019-05-13T14:40:55.014Z,17.10
2019-05-13T14:43:22.923Z,17.60
2019-05-13T14:45:51.851Z,17.60
2019-05-13T14:48:18.062Z,17.60
2019-05-13T14:50:44.680Z,17.60
2019-05-13T14:53:11.174Z,17.70
2019-05-13T14:55:37.835Z,17.70
2019-05-13T14:58:04.988Z,17.90
2019-05-13T15:00:32.770Z,18.20
2019-05-13T15:03:03.079Z,18.40
2019-05-13T15:05:31.410Z,19.30
2019-05-13T15:07:59.054Z,18.80
2019-05-13T15:10:27.646Z,19.50
2019-05-13T15:12:54.380Z,18.90
2019-05-13T15:15:22.348Z,19.00
2019-05-13T15:17:51.712Z,19.50
2019-05-13T15:20:18.018Z,19.40
2019-05-13T15:22:44.850Z,19.40
2019-05-13T15:25:11.837Z,19.70
2019-05-13T15:27:38.563Z,18.30
2019-05-13T15:30:16.852Z,18.00
2019-05-13T15:32:34.587Z,19.50
2019-05-13T15:35:02.243Z,21.00
2019-05-13T15:37:32.165Z,20.40
2019-05-13T15:39:59.195Z,19.80
2019-05-13T15:42:25.848Z,19.70
2019-05-13T15:44:53.155Z,19.70
2019-05-13T15:47:29.159Z,18.70
2019-05-13T15:49:48.693Z,18.90
2019-05-13T15:52:15.673Z,18.00
2019-05-13T15:54:43.347Z,17.80
2019-05-13T15:57:11.932Z,19.20
2019-05-13T15:59:38.431Z,20.00
2019-05-13T16:02:05.057Z,19.80
2019-05-13T16:04:31.990Z,19.70
2019-05-13T16:06:58.563Z,19.40
2019-05-13T16:09:25.098Z,19.30
2019-05-13T16:11:52.264Z,20.00
2019-05-13T16:14:19.051Z,19.50
2019-05-13T16:16:47.298Z,18.90
2019-05-13T16:19:14.633Z,18.80
2019-05-13T16:21:41.834Z,19.10
2019-05-13T16:24:08.734Z,19.70
2019-05-13T16:26:36.477Z,20.20
2019-05-13T16:29:03.245Z,21.30
2019-05-13T16:31:31.801Z,21.00
2019-05-13T16:34:01.599Z,20.80
2019-05-13T16:36:31.365Z,20.80
2019-05-13T16:39:01.992Z,20.50
2019-05-13T16:41:28.367Z,20.60
2019-05-13T16:43:55.006Z,20.30
2019-05-13T16:46:23.265Z,20.20
2019-05-13T16:48:50.017Z,20.30
2019-05-13T16:51:16.591Z,20.30
2019-05-13T16:53:43.717Z,20.00
2019-05-13T16:56:25.289Z,19.90
2019-05-13T16:58:41.479Z,19.30
2019-05-13T17:01:07.627Z,19.30
2019-05-13T17:03:34.262Z,18.50
2019-05-13T17:06:02.158Z,18.90
2019-05-13T17:08:31.850Z,20.00
2019-05-13T17:10:59.131Z,20.20
2019-05-13T17:13:25.897Z,20.70
2019-05-13T17:15:53.444Z,20.40
2019-05-13T17:18:21.953Z,21.00
2019-05-13T17:20:48.865Z,20.80
2019-05-13T17:23:15.527Z,20.50
2019-05-13T17:25:42.452Z,20.30
2019-05-13T17:28:13.421Z,21.20
2019-05-13T17:30:41.145Z,21.20
2019-05-13T17:33:08.708Z,21.00
2019-05-13T17:35:35.367Z,20.80
2019-05-13T17:38:02.129Z,21.10
2019-05-13T17:40:31.337Z,21.00
2019-05-13T17:42:57.476Z,20.90
2019-05-13T17:45:24.208Z,20.90
2019-05-13T17:47:52.082Z,21.60
2019-05-13T17:50:19.071Z,22.20
2019-05-13T17:52:47.409Z,20.90
2019-05-13T17:55:14.889Z,20.30
2019-05-13T17:57:41.673Z,20.50
2019-05-13T18:00:09.998Z,19.90
2019-05-13T18:02:36.726Z,20.00
2019-05-13T18:05:04.561Z,19.60
2019-05-13T18:07:32.134Z,18.80
2019-05-13T18:10:01.299Z,18.70
2019-05-13T18:12:27.606Z,18.80
2019-05-13T18:14:54.194Z,18.80
2019-05-13T18:17:21.548Z,18.50
2019-05-13T18:19:48.198Z,18.10
2019-05-13T18:22:14.846Z,18.60
2019-05-13T18:24:41.418Z,18.70
2019-05-13T18:27:07.958Z,18.30
2019-05-13T18:29:34.524Z,17.70
2019-05-13T18:32:02.819Z,17.40
2019-05-13T18:34:29.298Z,17.30
2019-05-13T18:36:57.717Z,17.10
2019-05-13T18:39:24.367Z,17.00
2019-05-13T18:41:50.933Z,17.00
2019-05-13T18:44:17.525Z,17.10
2019-05-13T18:46:44.763Z,16.70
2019-05-13T18:49:12.060Z,16.50
2019-05-13T18:51:39.470Z,16.60
2019-05-13T18:54:07.534Z,16.00
2019-05-13T18:56:34.573Z,15.70
2019-05-13T18:59:02.031Z,15.30
2019-05-13T19:01:29.062Z,15.00
2019-05-13T19:03:55.653Z,14.80
2019-05-13T19:06:22.507Z,14.80
2019-05-13T19:08:49.204Z,14.90
2019-05-13T19:11:15.955Z,14.80
2019-05-13T19:13:42.936Z,14.30
2019-05-13T19:16:11.687Z,14.10
2019-05-13T19:18:37.999Z,14.00
2019-05-13T19:21:04.688Z,14.10
2019-05-13T19:23:31.553Z,14.00
2019-05-13T19:25:58.734Z,14.00
2019-05-13T19:28:25.525Z,14.00
2019-05-13T19:30:52.087Z,13.90
2019-05-13T19:33:18.670Z,13.90
2019-05-13T19:35:45.780Z,13.80
2019-05-13T19:38:12.426Z,14.00
2019-05-13T19:40:38.981Z,14.00
2019-05-13T19:43:05.730Z,13.90
2019-05-13T19:45:32.521Z,13.80
2019-05-13T19:48:01.105Z,13.80
2019-05-13T19:50:28.773Z,13.80
2019-05-13T19:52:55.411Z,13.70
2019-05-13T19:55:21.969Z,13.60
2019-05-13T19:57:48.541Z,13.40
2019-05-13T20:00:15.517Z,13.50
2019-05-13T20:02:42.329Z,13.60
2019-05-13T20:05:09.059Z,13.60
2019-05-13T20:07:36.281Z,13.50
2019-05-13T20:10:05.510Z,13.50
2019-05-13T20:12:32.171Z,13.50
2019-05-13T20:15:01.214Z,13.40
2019-05-13T20:17:27.271Z,13.40
2019-05-13T20:19:53.828Z,13.20
2019-05-13T20:22:20.427Z,13.30
2019-05-13T20:24:47.095Z,13.30
2019-05-13T20:27:13.651Z,13.20
2019-05-13T20:29:41.711Z,13.20
2019-05-13T20:32:08.873Z,13.20
2019-05-13T20:34:35.653Z,13.00
2019-05-13T20:37:02.532Z,13.10
2019-05-13T20:39:31.732Z,13.10
2019-05-13T20:41:58.055Z,13.00
2019-05-13T20:44:24.991Z,13.10
2019-05-13T20:46:51.930Z,13.10
2019-05-13T20:49:21.714Z,13.10
2019-05-13T20:51:47.945Z,12.90
2019-05-13T20:54:14.792Z,13.00
2019-05-13T20:56:42.753Z,13.10
2019-05-13T20:59:09.381Z,13.00
2019-05-13T21:01:36.279Z,13.00
2019-05-13T21:04:03.013Z,13.10
2019-05-13T21:06:31.576Z,13.10
2019-05-13T21:08:58.430Z,13.20
2019-05-13T21:11:25.094Z,13.00
2019-05-13T21:13:51.837Z,12.90
2019-05-13T21:16:18.725Z,12.80
2019-05-13T21:18:45.438Z,12.80
2019-05-13T21:21:13.698Z,12.80
2019-05-13T21:23:41.945Z,12.50
2019-05-13T21:26:11.898Z,12.60
2019-05-13T21:28:37.361Z,12.50
2019-05-13T21:31:04.037Z,12.60
2019-05-13T21:33:31.516Z,12.50
2019-05-13T21:35:58.525Z,12.60
2019-05-13T21:38:25.294Z,12.50
2019-05-13T21:40:52.332Z,12.50
2019-05-13T21:43:21.603Z,12.50
2019-05-13T21:45:48.529Z,12.30
2019-05-13T21:48:15.406Z,12.30
2019-05-13T21:50:43.664Z,12.30
2019-05-13T21:53:12.430Z,12.30
2019-05-13T21:55:41.393Z,12.50
2019-05-13T21:58:13.850Z,12.60
2019-05-13T22:00:42.486Z,12.70
2019-05-13T22:03:11.440Z,12.30
2019-05-13T22:05:37.986Z,12.50
2019-05-13T22:08:04.663Z,12.70
2019-05-13T22:10:31.344Z,12.50
2019-05-13T22:12:58.183Z,12.50
2019-05-13T22:15:24.713Z,12.50
2019-05-13T22:17:53.003Z,12.30
2019-05-13T22:20:21.318Z,12.20
2019-05-13T22:22:48.300Z,12.20
2019-05-13T22:25:14.955Z,12.10
2019-05-13T22:27:41.629Z,12.40
2019-05-13T22:30:08.687Z,12.20
2019-05-13T22:32:35.348Z,11.90
2019-05-13T22:35:02.186Z,12.20
2019-05-13T22:37:31.341Z,12.20
2019-05-13T22:39:58.205Z,12.00
2019-05-13T22:42:24.807Z,12.00
2019-05-13T22:44:52.236Z,11.80
2019-05-13T22:47:19.032Z,11.80
2019-05-13T22:49:45.659Z,11.70
2019-05-13T22:52:12.235Z,11.60
2019-05-13T22:54:41.063Z,11.70
2019-05-13T22:57:07.225Z,11.60
2019-05-13T22:59:33.884Z,11.80
2019-05-13T23:02:02.166Z,11.70
2019-05-13T23:04:31.232Z,11.40
2019-05-13T23:06:57.791Z,11.40
2019-05-13T23:09:24.349Z,11.40
2019-05-13T23:11:51.177Z,11.40
2019-05-13T23:14:21.864Z,11.50
2019-05-13T23:16:48.243Z,10.90
2019-05-13T23:19:15.085Z,11.10
2019-05-13T23:21:41.943Z,10.80
2019-05-13T23:24:11.171Z,10.70
2019-05-13T23:26:37.119Z,10.90
2019-05-13T23:29:03.807Z,11.10
2019-05-13T23:31:30.430Z,11.00
2019-05-13T23:33:57.677Z,10.70
2019-05-13T23:36:24.498Z,10.90
2019-05-13T23:38:51.662Z,10.80
2019-05-13T23:41:18.515Z,10.60
2019-05-13T23:43:45.266Z,10.60
2019-05-13T23:46:11.908Z,10.80
2019-05-13T23:48:41.176Z,10.60
2019-05-13T23:51:07.510Z,10.40
2019-05-13T23:53:34.268Z,10.10
2019-05-13T23:56:02.115Z,10.20
2019-05-13T23:58:32.213Z,10.60
